Time;durP1;ratioP1;P1;durP2;ratioP2;P2;SDS_P1;SDS_P2;PMS_P1;PMS_P2;Temp;Humidity;BMP_temperature;BMP_pressure;BME280_temperature;BME280_humidity;BME280_pressure;Samples;Min_cycle;Max_cycle;Signal;HPM_P1;HPM_P2
2022/04/01 00:02:09;;;;;;;31.00;15.35;;;11.10;99.90;;;;;;4981772;28;19906;-79
2022/04/01 00:04:34;;;;;;;;;;;11.10;99.90;;;;;;4984269;28;20484;-79
2022/04/01 00:07:00;;;;;;;23.70;14.30;;;11.00;99.90;;;;;;4984491;28;19910;-79
2022/04/01 00:09:25;;;;;;;;;;;11.00;99.90;;;;;;4985663;28;20569;-79
2022/04/01 00:11:51;;;;;;;25.83;13.55;;;11.00;99.90;;;;;;4982782;28;19913;-79
2022/04/01 00:14:17;;;;;;;;;;;11.00;99.90;;;;;;4986886;28;20026;-78
2022/04/01 00:16:42;;;;;;;27.40;16.55;;;11.00;99.90;;;;;;4984604;28;19913;-78
2022/04/01 00:19:08;;;;;;;;;;;11.00;99.90;;;;;;4999523;28;20031;-80
2022/04/01 00:21:34;;;;;;;25.33;14.98;;;11.00;99.90;;;;;;5001473;28;19894;-80
2022/04/01 00:24:01;;;;;;;33.03;17.02;;;11.00;99.90;;;;;;4994162;28;20027;-79
2022/04/01 00:26:27;;;;;;;25.48;15.77;;;11.00;99.90;;;;;;4990312;28;20027;-79
2022/04/01 00:28:52;;;;;;;;;;;11.10;99.90;;;;;;4989972;28;20039;-79
2022/04/01 00:31:18;;;;;;;34.90;18.60;;;11.00;99.90;;;;;;4989317;28;19906;-78
2022/04/01 00:33:44;;;;;;;38.38;20.75;;;11.00;99.90;;;;;;4988153;28;20579;-79
2022/04/01 00:36:09;;;;;;;;;;;11.10;99.90;;;;;;4989340;28;20050;-80
2022/04/01 00:38:35;;;;;;;79.00;31.42;;;11.10;99.90;;;;;;4987880;28;19944;-79
2022/04/01 00:41:01;;;;;;;;;;;11.10;99.90;;;;;;4989332;28;20460;-79
2022/04/01 00:43:32;;;;;;;58.60;26.60;;;11.10;99.90;;;;;;4989479;28;19906;-79
2022/04/01 00:45:58;;;;;;;65.18;31.20;;;11.00;99.90;;;;;;4988214;28;20034;-79
2022/04/01 00:48:25;;;;;;;69.18;32.67;;;11.00;99.90;;;;;;4990753;28;20030;-79
2022/04/01 00:50:51;;;;;;;65.93;32.90;;;11.00;99.90;;;;;;4990065;28;20026;-79
2022/04/01 00:53:21;;;;;;;62.65;30.40;;;11.10;99.90;;;;;;4988413;28;20054;-79
2022/04/01 00:55:47;;;;;;;60.83;30.17;;;11.10;99.90;;;;;;4987719;28;20034;-77
2022/04/01 00:58:13;;;;;;;52.75;27.50;;;11.10;99.90;;;;;;4987349;28;20037;-79
2022/04/01 01:00:39;;;;;;;;;;;11.00;99.90;;;;;;4990637;28;20058;-79
2022/04/01 01:03:05;;;;;;;48.05;24.63;;;11.00;99.90;;;;;;4988354;28;19906;-79
2022/04/01 01:05:31;;;;;;;;;;;11.00;99.90;;;;;;4992112;28;20073;-79
2022/04/01 01:07:57;;;;;;;42.17;24.27;;;11.00;99.90;;;;;;4990972;28;19906;-79
2022/04/01 01:10:24;;;;;;;48.67;26.33;;;11.00;99.90;;;;;;4995584;28;20050;-79
2022/04/01 01:12:51;;;;;;;46.65;27.85;;;11.00;99.90;;;;;;4991695;28;20031;-79
2022/04/01 01:15:18;;;;;;;42.08;25.63;;;11.00;99.90;;;;;;4995327;28;20029;-79
2022/04/01 01:17:45;;;;;;;44.63;25.35;;;11.00;99.90;;;;;;4997512;28;20015;-79
2022/04/01 01:20:15;;;;;;;41.05;24.35;;;11.00;99.90;;;;;;4999309;28;20027;-80
2022/04/01 01:22:47;;;;;;;42.83;24.83;;;11.00;99.90;;;;;;4998770;28;20011;-80
2022/04/01 01:25:13;;;;;;;43.72;23.27;;;11.00;99.90;;;;;;4997507;28;20034;-79
2022/04/01 01:27:40;;;;;;;38.10;23.63;;;11.10;99.90;;;;;;4995426;28;20086;-77
2022/04/01 01:30:07;;;;;;;52.20;25.60;;;11.10;99.90;;;;;;4989244;28;20035;-79
2022/04/01 01:32:34;;;;;;;39.28;25.42;;;11.10;99.90;;;;;;4984425;28;20118;-79
2022/04/01 01:35:02;;;;;;;48.67;25.60;;;11.10;99.90;;;;;;4984356;28;20889;-79
2022/04/01 01:37:28;;;;;;;49.65;26.65;;;11.10;99.90;;;;;;4984213;28;20038;-79
2022/04/01 01:39:54;;;;;;;40.58;24.60;;;11.10;99.90;;;;;;4981564;28;20125;-79
2022/04/01 01:42:19;;;;;;;;;;;11.10;99.90;;;;;;4982011;28;20047;-79
2022/04/01 01:44:45;;;;;;;44.00;16.95;;;11.10;99.90;;;;;;4981420;28;20272;-79
2022/04/01 01:47:11;;;;;;;;;;;11.10;99.90;;;;;;4980511;28;20460;-78
2022/04/01 01:49:36;;;;;;;44.10;15.82;;;11.10;99.90;;;;;;4980413;28;20269;-79
2022/04/01 01:54:50;;;;;;;38.72;16.63;;;10.90;99.90;;;;;;4982013;28;19979;-77
2022/04/01 01:57:21;;;;;;;25.50;16.35;;;10.90;99.90;;;;;;4980335;28;20051;-78
2022/04/01 01:59:47;;;;;;;33.70;16.55;;;10.80;99.90;;;;;;4986716;28;20043;-78
2022/04/01 02:02:13;;;;;;;46.13;18.38;;;10.80;99.90;;;;;;4983264;28;20039;-78
2022/04/01 02:04:39;;;;;;;;;;;10.80;99.90;;;;;;4979027;28;20051;-78
2022/04/01 02:07:06;;;;;;;41.47;18.02;;;10.80;99.90;;;;;;4976234;28;19953;-78
2022/04/01 02:09:32;;;;;;;41.80;20.20;;;10.80;99.90;;;;;;4981021;28;20042;-78
2022/04/01 02:11:58;;;;;;;;;;;10.80;99.90;;;;;;4979053;28;20066;-78
2022/04/01 02:14:24;;;;;;;39.83;18.98;;;10.80;99.90;;;;;;4979422;28;19921;-78
2022/04/01 02:16:50;;;;;;;38.72;19.27;;;10.80;99.90;;;;;;4979506;28;20381;-78
2022/04/01 02:19:21;;;;;;;;;;;10.70;99.90;;;;;;4982040;28;20507;-77
2022/04/01 02:21:49;;;;;;;41.13;21.73;;;10.80;99.90;;;;;;4980637;28;19922;-78
2022/04/01 02:24:17;;;;;;;39.35;19.70;;;10.80;99.90;;;;;;4980546;28;20403;-79
2022/04/01 02:26:44;;;;;;;49.60;21.05;;;10.90;99.90;;;;;;4979588;28;20113;-78
2022/04/01 02:29:10;;;;;;;42.80;22.23;;;10.90;99.90;;;;;;4977978;28;20050;-79
2022/04/01 02:31:35;;;;;;;;;;;10.90;99.90;;;;;;4980556;28;20026;-78
2022/04/01 02:34:01;;;;;;;52.50;24.75;;;10.80;99.90;;;;;;4982004;28;19906;-79
2022/04/01 02:36:27;;;;;;;;;;;10.80;99.90;;;;;;4983311;28;20110;-79
2022/04/01 02:38:53;;;;;;;65.03;28.58;;;10.70;99.90;;;;;;4981933;28;19922;-79
2022/04/01 02:41:19;;;;;;;66.40;29.10;;;10.70;99.90;;;;;;4982502;28;20038;-79
2022/04/01 02:43:46;;;;;;;;;;;10.70;99.90;;;;;;4983856;28;20034;-79
2022/04/01 02:46:12;;;;;;;65.68;30.02;;;10.70;99.90;;;;;;4981409;28;19917;-78
2022/04/01 02:48:38;;;;;;;67.32;29.42;;;10.70;99.90;;;;;;4981786;28;20035;-78
2022/04/01 02:51:03;;;;;;;;;;;10.80;99.90;;;;;;4984544;28;20035;-79
2022/04/01 02:53:29;;;;;;;68.13;31.40;;;10.80;99.90;;;;;;4982623;28;19960;-80
2022/04/01 02:55:55;;;;;;;;;;;10.70;99.90;;;;;;4983426;28;20033;-79
2022/04/01 02:58:21;;;;;;;72.07;33.53;;;10.80;99.90;;;;;;4982522;28;19910;-79
2022/04/01 03:00:46;;;;;;;;;;;10.70;99.90;;;;;;4984431;28;20065;-79
2022/04/01 03:03:12;;;;;;;71.53;34.10;;;10.70;99.90;;;;;;4982066;28;19982;-79
2022/04/01 03:05:39;;;;;;;;;;;10.70;99.90;;;;;;4982259;28;20511;-79
2022/04/01 03:08:06;;;;;;;82.50;37.07;;;10.70;99.90;;;;;;4982386;28;19910;-81
2022/04/01 03:10:33;;;;;;;72.15;35.25;;;10.70;99.90;;;;;;4983444;28;20105;-79
2022/04/01 03:12:59;;;;;;;72.28;33.20;;;10.80;99.90;;;;;;4984196;28;20046;-79
2022/04/01 03:15:25;;;;;;;74.10;33.95;;;10.80;99.90;;;;;;4984038;28;20034;-79
2022/04/01 03:17:50;;;;;;;;;;;10.80;99.90;;;;;;4983695;28;20041;-79
2022/04/01 03:20:16;;;;;;;73.43;34.65;;;10.80;99.90;;;;;;4982194;28;19914;-79
2022/04/01 03:22:42;;;;;;;;;;;10.90;99.90;;;;;;4985481;28;20034;-78
2022/04/01 03:25:12;;;;;;;68.95;33.03;;;10.80;99.90;;;;;;4984906;28;19906;-79
2022/04/01 03:27:39;;;;;;;74.20;34.13;;;10.80;99.90;;;;;;4984727;28;20050;-78
2022/04/01 03:30:09;;;;;;;63.47;31.40;;;10.80;99.90;;;;;;4984702;28;20031;-78
2022/04/01 03:32:38;;;;;;;65.18;31.40;;;10.80;99.90;;;;;;4985332;28;20018;-80
2022/04/01 03:35:07;;;;;;;60.50;30.98;;;10.80;99.90;;;;;;4983639;28;20050;-79
2022/04/01 03:37:33;;;;;;;65.18;30.58;;;10.90;99.90;;;;;;4984248;28;20030;-79
2022/04/01 03:40:00;;;;;;;68.38;33.92;;;10.90;99.90;;;;;;4986190;28;20062;-79
2022/04/01 03:42:31;;;;;;;71.72;33.28;;;10.90;99.90;;;;;;4988595;28;20034;-79
2022/04/01 03:45:03;;;;;;;102.30;36.03;;;10.80;99.90;;;;;;4988419;28;20050;-80
2022/04/01 03:47:47;;;;;;;106.82;36.95;;;10.90;99.90;;;;;;4989217;28;20022;-79
2022/04/01 03:50:13;;;;;;;143.50;40.08;;;10.80;99.90;;;;;;4988254;28;20037;-79
2022/04/01 03:52:41;;;;;;;189.60;42.92;;;10.90;99.90;;;;;;4988823;28;20051;-79
2022/04/01 03:55:09;;;;;;;248.35;42.60;;;10.90;99.90;;;;;;4989123;28;20118;-79
2022/04/01 03:57:39;;;;;;;372.67;45.60;;;10.90;99.90;;;;;;4988004;28;20015;-78
2022/04/01 04:00:08;;;;;;;398.98;47.90;;;11.00;99.90;;;;;;4987706;28;20042;-79
2022/04/01 04:02:35;;;;;;;318.83;44.28;;;10.90;99.90;;;;;;4986641;28;20114;-79
2022/04/01 04:05:02;;;;;;;209.25;41.55;;;10.90;99.90;;;;;;4986964;28;20131;-79
2022/04/01 04:07:31;;;;;;;181.60;41.45;;;10.90;99.90;;;;;;4989016;28;20110;-79
2022/04/01 04:09:58;;;;;;;133.10;41.22;;;10.80;99.90;;;;;;4988818;28;20054;-79
2022/04/01 04:12:27;;;;;;;187.02;43.42;;;10.80;99.90;;;;;;4987581;28;20070;-79
2022/04/01 04:14:54;;;;;;;305.90;41.78;;;10.70;99.90;;;;;;4988536;28;20027;-79
2022/04/01 04:17:40;;;;;;;286.80;42.65;;;10.80;99.90;;;;;;4986604;28;20023;-79
2022/04/01 04:20:18;;;;;;;259.38;38.65;;;10.80;99.90;;;;;;4986739;28;20062;-78
2022/04/01 04:23:15;;;;;;;190.82;35.40;;;10.80;99.90;;;;;;4985142;28;20064;-79
2022/04/01 04:25:51;;;;;;;130.50;34.47;;;10.80;99.90;;;;;;4985598;28;20039;-79
2022/04/01 04:28:24;;;;;;;198.63;38.63;;;10.70;99.90;;;;;;4986297;28;20042;-79
2022/04/01 04:30:59;;;;;;;170.50;33.65;;;10.70;99.90;;;;;;4986882;28;20030;-78
2022/04/01 04:33:30;;;;;;;225.27;32.42;;;10.70;99.90;;;;;;4994977;28;20022;-79
2022/04/01 04:36:04;;;;;;;93.78;26.38;;;10.70;99.90;;;;;;4992053;28;20045;-79
2022/04/01 04:38:37;;;;;;;83.68;25.40;;;10.70;99.90;;;;;;4991045;28;21893;-79
2022/04/01 04:41:08;;;;;;;62.65;25.27;;;10.60;99.90;;;;;;4987522;28;20114;-80
2022/04/01 04:43:40;;;;;;;69.63;20.35;;;10.70;99.90;;;;;;4988078;28;20034;-79
2022/04/01 04:46:08;;;;;;;58.65;20.23;;;10.70;99.90;;;;;;4980344;28;20062;-79
2022/04/01 04:48:36;;;;;;;84.80;21.77;;;10.70;99.90;;;;;;4988017;28;20066;-79
2022/04/01 04:51:03;;;;;;;50.67;19.85;;;10.70;99.90;;;;;;4986409;28;20027;-79
2022/04/01 04:53:34;;;;;;;111.88;20.23;;;10.60;99.90;;;;;;4987099;28;20054;-79
2022/04/01 04:56:01;;;;;;;46.65;20.00;;;10.70;99.90;;;;;;4986084;28;20054;-79
2022/04/01 04:58:39;;;;;;;36.83;19.75;;;10.60;99.90;;;;;;4988249;28;20034;-79
2022/04/01 05:01:17;;;;;;;43.22;20.17;;;10.70;99.90;;;;;;4986831;28;20029;-79
2022/04/01 05:04:18;;;;;;;40.67;22.50;;;10.60;99.90;;;;;;4985918;28;20023;-79
2022/04/01 05:07:17;;;;;;;48.50;23.42;;;10.60;99.90;;;;;;4987945;28;20023;-78
2022/04/01 05:10:01;;;;;;;39.60;22.00;;;10.50;99.90;;;;;;4986159;28;20063;-78
2022/04/01 05:12:33;;;;;;;41.88;21.55;;;10.50;99.90;;;;;;4987920;28;20469;-79
2022/04/01 05:14:58;;;;;;;52.63;24.98;;;10.50;99.90;;;;;;4987628;28;20035;-79
2022/04/01 05:17:43;;;;;;;;;;;10.50;99.90;;;;;;4987518;28;20049;-79
2022/04/01 05:20:16;;;;;;;46.45;23.55;;;10.50;99.90;;;;;;4988678;28;19974;-79
2022/04/01 05:23:02;;;;;;;42.25;21.15;;;10.50;99.90;;;;;;4989328;28;20015;-78
2022/04/01 05:25:31;;;;;;;42.65;21.17;;;10.60;99.90;;;;;;4987121;28;20214;-79
2022/04/01 05:28:01;;;;;;;42.42;19.40;;;10.60;99.90;;;;;;4986820;28;20031;-79
2022/04/01 05:30:30;;;;;;;35.42;17.73;;;10.60;99.90;;;;;;4989887;28;20023;-80
2022/04/01 05:33:09;;;;;;;35.70;17.33;;;10.60;99.90;;;;;;4989261;28;20051;-79
2022/04/01 05:35:37;;;;;;;26.30;15.02;;;10.60;99.90;;;;;;4986619;28;20050;-79
2022/04/01 05:38:04;;;;;;;23.60;13.00;;;10.60;99.90;;;;;;4987509;28;20034;-79
2022/04/01 05:40:31;;;;;;;20.08;11.93;;;10.60;99.90;;;;;;4986924;28;20037;-80
2022/04/01 05:42:59;;;;;;;18.35;11.93;;;10.70;99.90;;;;;;4987148;28;20403;-79
2022/04/01 05:45:27;;;;;;;19.75;10.85;;;10.70;99.90;;;;;;4987895;28;20167;-80
2022/04/01 05:47:54;;;;;;;16.35;10.73;;;10.70;99.90;;;;;;4990766;28;20091;-79
2022/04/01 05:50:22;;;;;;;17.85;9.75;;;10.70;99.90;;;;;;4990936;28;20115;-80
2022/04/01 05:52:50;;;;;;;15.60;10.23;;;10.60;99.90;;;;;;4991894;28;20030;-79
2022/04/01 05:55:21;;;;;;;15.73;10.00;;;10.70;99.90;;;;;;4991405;28;20023;-80
2022/04/01 05:57:47;;;;;;;13.40;9.27;;;10.70;99.90;;;;;;4992086;28;20027;-78
2022/04/01 06:00:12;;;;;;;;;;;10.70;99.90;;;;;;4991511;28;20041;-79
2022/04/01 06:02:59;;;;;;;17.08;11.15;;;10.70;99.90;;;;;;4991392;28;19910;-80
2022/04/01 06:05:25;;;;;;;;;;;10.80;99.90;;;;;;4992248;28;20058;-79
2022/04/01 06:07:56;;;;;;;14.50;10.13;;;10.80;99.90;;;;;;4991995;28;19906;-79
2022/04/01 06:10:54;;;;;;;16.55;11.90;;;10.90;99.90;;;;;;4990849;28;20031;-79
2022/04/01 06:13:22;;;;;;;;;;;10.90;99.90;;;;;;4992611;28;20027;-79
2022/04/01 06:16:08;;;;;;;29.80;18.85;;;10.90;99.90;;;;;;4992611;28;19906;-79
2022/04/01 06:18:52;;;;;;;21.77;14.52;;;11.00;99.90;;;;;;4983403;28;20058;-78
2022/04/01 06:21:25;;;;;;;18.98;13.73;;;11.10;99.90;;;;;;4993064;28;20027;-80
2022/04/01 06:24:00;;;;;;;17.95;13.57;;;11.20;99.90;;;;;;4992443;28;20062;-79
2022/04/01 06:26:29;;;;;;;17.00;13.10;;;11.30;99.90;;;;;;4993723;28;20031;-80
2022/04/01 06:29:09;;;;;;;19.83;14.10;;;11.60;99.90;;;;;;4993392;28;20017;-79
2022/04/01 06:31:35;;;;;;;17.58;13.45;;;11.60;99.90;;;;;;4992217;28;20026;-79
2022/04/01 06:34:25;;;;;;;;;;;11.60;99.90;;;;;;4991136;28;20536;-79
2022/04/01 06:36:53;;;;;;;24.77;17.02;;;11.70;99.90;;;;;;4987750;28;19909;-80
2022/04/01 06:39:41;;;;;;;27.08;16.73;;;11.60;99.90;;;;;;4991344;28;20090;-79
2022/04/01 06:42:13;;;;;;;26.38;17.60;;;11.70;99.90;;;;;;4991110;28;20009;-79
2022/04/01 06:44:39;;;;;;;32.92;18.65;;;11.70;99.90;;;;;;4990848;28;20479;-80
2022/04/01 06:47:05;;;;;;;38.63;21.23;;;11.70;99.90;;;;;;4992553;28;20436;-79
2022/04/01 06:49:31;;;;;;;;;;;11.70;99.90;;;;;;4991987;28;20026;-80
2022/04/01 06:51:56;;;;;;;44.72;24.40;;;11.60;99.90;;;;;;4992360;28;19897;-79
2022/04/01 06:54:22;;;;;;;;;;;11.60;99.90;;;;;;4992076;28;20042;-79
2022/04/01 06:56:48;;;;;;;40.72;22.08;;;11.70;99.90;;;;;;4992512;28;19913;-80
2022/04/01 06:59:13;;;;;;;;;;;11.70;99.90;;;;;;4993404;28;20039;-79
2022/04/01 07:01:39;;;;;;;62.65;37.38;;;11.70;99.90;;;;;;4992428;28;19890;-80
2022/04/01 07:04:05;;;;;;;;;;;11.80;99.90;;;;;;4990729;28;20023;-79
2022/04/01 07:06:30;;;;;;;79.90;47.97;;;11.80;99.90;;;;;;4997081;28;19914;-79
2022/04/01 07:08:56;;;;;;;;;;;11.80;99.90;;;;;;4999094;28;20019;-79
2022/04/01 07:11:22;;;;;;;28.52;17.10;;;11.80;99.90;;;;;;4993547;28;19953;-79
2022/04/01 07:13:52;;;;;;;;;;;11.80;99.90;;;;;;4992825;28;20018;-80
2022/04/01 07:16:17;;;;;;;27.17;14.98;;;11.80;99.90;;;;;;4994570;28;19906;-78
2022/04/01 07:18:43;;;;;;;;;;;11.80;99.90;;;;;;4995470;28;20011;-80
2022/04/01 07:21:08;;;;;;;17.15;11.10;;;11.70;99.90;;;;;;4993837;28;19913;-78
2022/04/01 07:23:34;;;;;;;;;;;11.70;99.90;;;;;;4992641;28;20034;-79
2022/04/01 07:26:00;;;;;;;25.30;16.75;;;11.70;99.90;;;;;;4993486;28;19910;-80
2022/04/01 07:28:25;;;;;;;;;;;11.70;99.90;;;;;;4993307;28;20035;-80
2022/04/01 07:30:51;;;;;;;16.65;11.85;;;11.60;99.90;;;;;;4992324;28;19913;-79
2022/04/01 07:33:17;;;;;;;;;;;11.60;99.90;;;;;;4991820;28;20022;-80
2022/04/01 07:35:49;;;;;;;17.20;10.85;;;11.50;99.90;;;;;;4992419;28;19918;-80
2022/04/01 07:38:15;;;;;;;14.60;9.45;;;11.40;99.90;;;;;;4991405;28;20035;-80
2022/04/01 07:40:42;;;;;;;17.65;9.75;;;11.40;99.90;;;;;;4992538;28;20088;-79
2022/04/01 07:43:08;;;;;;;20.42;12.70;;;11.30;99.90;;;;;;4991373;28;20047;-79
2022/04/01 07:45:34;;;;;;;;;;;11.20;99.90;;;;;;4990894;28;20542;-78
2022/04/01 07:48:01;;;;;;;15.98;12.48;;;11.20;99.90;;;;;;4988419;28;19910;-79
2022/04/01 07:50:27;;;;;;;15.32;11.00;;;11.20;99.90;;;;;;4987347;28;20031;-79
2022/04/01 07:52:53;;;;;;;13.23;10.38;;;11.30;99.90;;;;;;4981686;28;20062;-79
2022/04/01 07:55:19;;;;;;;;;;;11.30;99.90;;;;;;4983725;28;20050;-78
2022/04/01 07:57:46;;;;;;;19.20;15.23;;;11.30;99.90;;;;;;4985125;28;20004;-79
2022/04/01 08:00:16;;;;;;;18.20;14.13;;;11.30;99.90;;;;;;4984227;28;20035;-79
2022/04/01 08:02:42;;;;;;;21.52;15.35;;;11.40;99.90;;;;;;4985685;28;20019;-78
2022/04/01 08:05:09;;;;;;;21.40;16.48;;;11.40;99.90;;;;;;4982883;28;20102;-81
2022/04/01 08:07:35;;;;;;;26.80;20.50;;;11.40;99.90;;;;;;4985391;28;20039;-79
2022/04/01 08:10:01;;;;;;;25.45;19.70;;;11.40;99.90;;;;;;4987872;28;20117;-79
2022/04/01 08:12:27;;;;;;;24.80;18.63;;;11.30;99.90;;;;;;4988246;28;20125;-80
2022/04/01 08:14:52;;;;;;;;;;;11.30;99.90;;;;;;4985374;28;20034;-79
2022/04/01 08:17:18;;;;;;;24.45;19.95;;;11.30;99.90;;;;;;4985647;28;19910;-79
2022/04/01 08:19:44;;;;;;;;;;;11.30;99.90;;;;;;4985523;28;20039;-79
2022/04/01 08:22:10;;;;;;;15.70;13.30;;;11.40;99.90;;;;;;4984585;28;19913;-79
2022/04/01 08:24:36;;;;;;;;;;;11.50;99.90;;;;;;4985487;28;20031;-79
2022/04/01 08:27:02;;;;;;;18.15;14.95;;;11.40;99.90;;;;;;4988568;28;19906;-78
2022/04/01 08:29:29;;;;;;;;;;;11.40;99.90;;;;;;4990302;28;20030;-80
2022/04/01 08:31:56;;;;;;;18.88;13.98;;;11.30;99.90;;;;;;4991176;28;19910;-79
2022/04/01 08:34:22;;;;;;;19.15;13.35;;;11.20;99.90;;;;;;4989757;28;20034;-79
2022/04/01 08:36:47;;;;;;;;;;;11.20;99.90;;;;;;4991669;28;20026;-80
2022/04/01 08:39:13;;;;;;;16.13;12.02;;;11.20;99.90;;;;;;4989703;28;20470;-80
2022/04/01 08:41:39;;;;;;;;;;;11.20;99.90;;;;;;4989734;28;20035;-79
2022/04/01 08:44:05;;;;;;;15.23;13.02;;;11.20;99.90;;;;;;4992419;28;19945;-79
2022/04/01 08:46:31;;;;;;;21.95;12.90;;;11.20;99.90;;;;;;4992327;28;20039;-80
2022/04/01 08:48:57;;;;;;;15.45;11.20;;;11.20;99.90;;;;;;4992068;28;20022;-80
2022/04/01 08:51:23;;;;;;;;;;;11.30;99.90;;;;;;4993963;28;20109;-80
2022/04/01 08:53:49;;;;;;;8.95;6.95;;;11.40;99.90;;;;;;4993578;28;20351;-79
2022/04/01 08:56:17;;;;;;;;;;;11.50;99.90;;;;;;4993975;28;20034;-80
2022/04/01 08:58:43;;;;;;;11.27;8.75;;;11.60;99.90;;;;;;4992371;28;19929;-79
2022/04/01 09:01:08;;;;;;;;;;;11.80;99.90;;;;;;4994590;28;20058;-79
2022/04/01 09:03:35;;;;;;;13.20;10.77;;;11.90;99.90;;;;;;4991723;28;19910;-79
2022/04/01 09:06:03;;;;;;;13.40;12.07;;;11.90;99.90;;;;;;4989845;28;20551;-79
2022/04/01 09:08:35;;;;;;;15.10;13.50;;;11.80;99.90;;;;;;4989625;28;20022;-79
2022/04/01 09:11:04;;;;;;;16.40;11.90;;;11.80;99.90;;;;;;4987734;28;20035;-79
2022/04/01 09:13:50;;;;;;;16.10;9.93;;;11.90;99.90;;;;;;4987087;28;20038;-79
2022/04/01 09:16:39;;;;;;;12.88;11.07;;;12.00;99.90;;;;;;4986108;28;20035;-80
2022/04/01 09:19:06;;;;;;;19.73;11.15;;;11.80;99.90;;;;;;4987390;28;20031;-79
2022/04/01 09:21:39;;;;;;;11.95;10.13;;;11.80;99.90;;;;;;4989026;28;20035;-80
2022/04/01 09:24:06;;;;;;;15.80;9.88;;;11.80;99.90;;;;;;4989480;28;20034;-79
2022/04/01 09:26:40;;;;;;;14.35;9.27;;;11.90;99.90;;;;;;4992484;28;20014;-80
2022/04/01 09:29:11;;;;;;;14.48;10.32;;;12.00;99.90;;;;;;4991641;28;20027;-79
2022/04/01 09:31:41;;;;;;;24.70;12.70;;;12.00;99.90;;;;;;4991308;28;20403;-79
2022/04/01 09:34:10;;;;;;;23.88;15.35;;;12.00;99.90;;;;;;4994288;28;20031;-79
2022/04/01 09:36:37;;;;;;;24.88;15.77;;;12.00;99.90;;;;;;4993629;28;20033;-80
2022/04/01 09:39:12;;;;;;;23.15;15.40;;;12.00;99.90;;;;;;4997269;28;20026;-80
2022/04/01 09:41:42;;;;;;;24.98;16.23;;;12.10;99.90;;;;;;4998828;28;20023;-79
2022/04/01 09:44:17;;;;;;;25.63;17.65;;;12.10;99.90;;;;;;4996797;28;20027;-80
2022/04/01 09:46:52;;;;;;;33.40;19.40;;;12.20;99.90;;;;;;4996044;28;20015;-79
2022/04/01 09:49:33;;;;;;;29.55;17.95;;;12.20;99.90;;;;;;4995153;28;20015;-79
2022/04/01 09:51:59;;;;;;;26.63;19.52;;;12.30;99.90;;;;;;4993822;28;20038;-79
2022/04/01 09:54:26;;;;;;;37.45;21.38;;;12.30;99.90;;;;;;4994553;28;20031;-79
2022/04/01 09:56:54;;;;;;;37.83;22.58;;;12.40;99.90;;;;;;4994580;28;20035;-80
2022/04/01 09:59:22;;;;;;;25.75;19.73;;;12.40;99.90;;;;;;4996043;28;20039;-80
2022/04/01 10:01:48;;;;;;;32.67;23.25;;;12.30;99.90;;;;;;4993304;28;20034;-79
2022/04/01 10:04:14;;;;;;;34.17;24.95;;;12.20;99.90;;;;;;4994810;28;20102;-79
2022/04/01 10:06:40;;;;;;;;;;;12.20;99.90;;;;;;4995704;28;20054;-79
2022/04/01 10:09:11;;;;;;;38.53;26.42;;;12.20;99.90;;;;;;4994166;28;19897;-79
2022/04/01 10:11:40;;;;;;;35.03;25.15;;;12.20;99.90;;;;;;4995017;28;20034;-80
2022/04/01 10:14:15;;;;;;;36.65;25.38;;;12.20;99.90;;;;;;4993717;28;20098;-79
2022/04/01 10:16:43;;;;;;;41.95;26.33;;;12.20;99.90;;;;;;4995120;28;20026;-80
2022/04/01 10:19:12;;;;;;;24.85;20.40;;;12.30;99.90;;;;;;4994641;28;20015;-79
2022/04/01 10:21:41;;;;;;;31.75;20.77;;;12.30;99.90;;;;;;4994480;28;20086;-80
2022/04/01 10:24:14;;;;;;;26.58;19.95;;;12.20;99.90;;;;;;4992984;28;20022;-79
2022/04/01 10:26:59;;;;;;;38.55;21.95;;;12.10;99.90;;;;;;4996603;28;20039;-79
2022/04/01 10:29:26;;;;;;;28.70;20.77;;;12.00;99.90;;;;;;4995016;28;20015;-80
2022/04/01 10:31:55;;;;;;;40.08;31.70;;;12.00;99.90;;;;;;4994955;28;20102;-79
2022/04/01 10:34:24;;;;;;;50.58;37.63;;;11.90;99.90;;;;;;4994151;28;20034;-79
2022/04/01 10:36:54;;;;;;;48.53;35.28;;;11.90;99.90;;;;;;4995807;28;20035;-79
2022/04/01 10:39:20;;;;;;;42.13;32.92;;;11.80;99.90;;;;;;4995158;28;20023;-80
2022/04/01 10:42:05;;;;;;;;;;;11.70;99.90;;;;;;4994781;28;20014;-79
2022/04/01 10:44:57;;;;;;;44.47;27.90;;;11.80;99.90;;;;;;4993253;28;19910;-80
2022/04/01 10:51:36;;;;;;;30.83;25.23;;;11.80;99.90;;;;;;4994328;28;20034;-79
2022/04/01 10:53:39;;;;;;;26.65;20.58;;;11.80;99.90;;;;;;4995870;28;20038;-80
2022/04/01 10:56:25;;;;;;;28.05;21.73;;;11.90;99.90;;;;;;4995753;28;20030;-80
2022/04/01 10:59:08;;;;;;;24.83;18.55;;;11.90;99.90;;;;;;4995219;28;20066;-80
2022/04/01 11:01:54;;;;;;;9.32;6.43;;;12.00;99.90;;;;;;4994266;28;20022;-79
2022/04/01 11:04:19;;;;;;;3.47;2.90;;;12.10;99.90;;;;;;4995588;28;20027;-79
2022/04/01 11:07:04;;;;;;;;;;;12.10;99.90;;;;;;4995205;28;20023;-79
2022/04/01 11:09:40;;;;;;;3.08;0.60;;;12.00;99.90;;;;;;4996335;28;19906;-78
2022/04/01 11:12:15;;;;;;;3.78;2.38;;;12.00;99.90;;;;;;4996447;28;20062;-80
2022/04/01 11:15:16;;;;;;;10.40;5.85;;;12.10;99.90;;;;;;4995912;28;20015;-80
2022/04/01 11:17:45;;;;;;;7.22;5.43;;;12.10;99.90;;;;;;4996297;28;19999;-79
2022/04/01 11:20:19;;;;;;;16.75;9.00;;;12.10;99.90;;;;;;4996546;28;20050;-78
2022/04/01 11:23:06;;;;;;;7.82;4.00;;;12.20;99.90;;;;;;4995472;28;20086;-79
2022/04/01 11:25:31;;;;;;;0.40;0.20;;;12.20;99.90;;;;;;4995112;28;20027;-80
2022/04/01 11:28:01;;;;;;;;;;;12.20;99.90;;;;;;4997156;28;20026;-79
2022/04/01 11:30:32;;;;;;;0.30;0.20;;;12.10;99.90;;;;;;4995932;28;19942;-78
2022/04/01 11:33:05;;;;;;;0.80;0.25;;;12.00;99.90;;;;;;4994254;28;20007;-79
2022/04/01 11:35:39;;;;;;;2.97;0.73;;;11.80;99.90;;;;;;4995588;28;20074;-80
2022/04/01 11:38:06;;;;;;;6.40;2.80;;;11.80;99.90;;;;;;4994440;28;20072;-80
2022/04/01 11:40:35;;;;;;;2.65;0.98;;;11.70;99.90;;;;;;4995972;28;20023;-80
2022/04/01 11:43:09;;;;;;;2.03;0.93;;;11.60;99.90;;;;;;4994950;28;20034;-80
2022/04/01 11:45:39;;;;;;;1.90;0.75;;;11.50;99.90;;;;;;4997701;28;20039;-80
2022/04/01 11:48:31;;;;;;;4.88;0.98;;;11.50;99.90;;;;;;4995802;28;20026;-80
2022/04/01 11:51:02;;;;;;;1.02;0.30;;;11.40;99.90;;;;;;4995641;28;20031;-79
2022/04/01 11:53:35;;;;;;;1.52;0.40;;;11.50;99.90;;;;;;4995499;28;20115;-79
2022/04/01 11:56:02;;;;;;;0.65;0.30;;;11.50;99.90;;;;;;4995045;28;20076;-80
2022/04/01 11:58:48;;;;;;;1.48;0.52;;;11.60;99.90;;;;;;4995631;28;20071;-79
2022/04/01 12:01:16;;;;;;;1.73;0.50;;;11.60;99.90;;;;;;5000348;28;20027;-79
2022/04/01 12:03:42;;;;;;;1.02;0.38;;;11.70;99.90;;;;;;4999890;28;20035;-79
2022/04/01 12:09:04;;;;;;;3.67;2.00;;;11.80;99.90;;;;;;4991357;28;19910;-79
2022/04/01 12:11:30;;;;;;;1.45;0.90;;;11.90;99.90;;;;;;5000244;28;20030;-80
2022/04/01 12:13:55;;;;;;;;;;;11.90;99.90;;;;;;5001626;28;20110;-78
2022/04/01 12:16:22;;;;;;;0.70;0.30;;;11.80;99.90;;;;;;5001985;28;19933;-81
2022/04/01 12:18:50;;;;;;;1.25;0.60;;;11.90;99.90;;;;;;5000665;28;20047;-78
2022/04/01 12:21:21;;;;;;;1.92;0.93;;;11.90;99.90;;;;;;5000331;28;20034;-79
2022/04/01 12:23:49;;;;;;;4.57;1.10;;;12.00;99.90;;;;;;5000109;28;20099;-79
2022/04/01 12:26:19;;;;;;;1.27;0.50;;;12.10;99.90;;;;;;5000071;28;20037;-79
2022/04/01 12:28:49;;;;;;;0.60;0.20;;;12.30;99.90;;;;;;5000448;28;20015;-79
2022/04/01 12:31:19;;;;;;;2.03;0.73;;;12.50;99.90;;;;;;5000387;28;20112;-80
2022/04/01 12:33:50;;;;;;;1.45;0.75;;;12.50;99.90;;;;;;4996757;28;20039;-79
2022/04/01 12:36:27;;;;;;;0.90;0.40;;;12.70;99.90;;;;;;4999686;28;20085;-79
2022/04/01 12:39:03;;;;;;;1.80;0.75;;;12.90;99.90;;;;;;4989060;28;20062;-79
2022/04/01 12:41:32;;;;;;;2.25;0.40;;;13.10;99.90;;;;;;4995601;28;20027;-79
2022/04/01 12:44:00;;;;;;;0.95;0.40;;;13.40;99.90;;;;;;4998064;28;20035;-77
2022/04/01 12:46:36;;;;;;;6.43;2.70;;;13.60;99.90;;;;;;5000318;28;20011;-78
2022/04/01 12:49:19;;;;;;;10.15;4.32;;;13.80;99.90;;;;;;5000106;28;20061;-78
2022/04/01 12:51:49;;;;;;;5.70;1.98;;;13.90;99.90;;;;;;5001300;28;20053;-78
2022/04/01 12:54:33;;;;;;;4.78;2.20;;;14.10;99.90;;;;;;4993701;28;20494;-77
2022/04/01 12:57:01;;;;;;;1.48;0.55;;;14.20;99.90;;;;;;4996517;28;20128;-77
2022/04/01 12:59:27;;;;;;;0.80;0.30;;;14.30;99.90;;;;;;4992746;28;20042;-78
2022/04/01 13:01:57;;;;;;;;;;;14.40;99.90;;;;;;4996636;28;20038;-78
2022/04/01 13:04:23;;;;;;;0.10;0.10;;;14.40;99.90;;;;;;4994826;28;19910;-79
2022/04/01 13:07:04;;;;;;;;;;;14.40;99.90;;;;;;4998745;28;20066;-78
2022/04/01 13:09:31;;;;;;;0.10;0.10;;;14.30;99.90;;;;;;4991192;28;19921;-78
2022/04/01 13:11:58;;;;;;;0.80;0.20;;;14.20;99.90;;;;;;4988829;28;20030;-76